sensor_id;sensor_type;location;lat;lon;timestamp;pressure;altitude;pressure_sealevel;temperature
53667;BMP280;39568;51.026;5.468;2023-03-19T00:02:25;100256.03;;;10.52
53667;BMP280;39568;51.026;5.468;2023-03-19T00:04:52;100254.50;;;10.62
53667;BMP280;39568;51.026;5.468;2023-03-19T00:07:19;100262.75;;;10.58
53667;BMP280;39568;51.026;5.468;2023-03-19T00:09:47;100257.22;;;10.51
53667;BMP280;39568;51.026;5.468;2023-03-19T00:12:14;100260.88;;;10.48
53667;BMP280;39568;51.026;5.468;2023-03-19T00:14:40;100259.41;;;10.52
53667;BMP280;39568;51.026;5.468;2023-03-19T00:17:07;100251.19;;;10.50
53667;BMP280;39568;51.026;5.468;2023-03-19T00:19:34;100261.75;;;10.61
53667;BMP280;39568;51.026;5.468;2023-03-19T00:22:01;100262.81;;;10.42
53667;BMP280;39568;51.026;5.468;2023-03-19T00:24:27;100263.91;;;10.63
53667;BMP280;39568;51.026;5.468;2023-03-19T00:26:56;100262.47;;;10.62
53667;BMP280;39568;51.026;5.468;2023-03-19T00:29:23;100267.19;;;10.45
53667;BMP280;39568;51.026;5.468;2023-03-19T00:31:49;100271.78;;;10.44
53667;BMP280;39568;51.026;5.468;2023-03-19T00:34:17;100269.06;;;10.50
53667;BMP280;39568;51.026;5.468;2023-03-19T00:36:43;100273.47;;;10.42
53667;BMP280;39568;51.026;5.468;2023-03-19T00:39:10;100273.97;;;10.40
53667;BMP280;39568;51.026;5.468;2023-03-19T00:41:37;100266.94;;;10.43
53667;BMP280;39568;51.026;5.468;2023-03-19T00:44:05;100269.50;;;10.59
53667;BMP280;39568;51.026;5.468;2023-03-19T00:46:32;100274.63;;;10.52
53667;BMP280;39568;51.026;5.468;2023-03-19T00:49:00;100277.31;;;10.52
53667;BMP280;39568;51.026;5.468;2023-03-19T00:51:26;100279.44;;;10.53
53667;BMP280;39568;51.026;5.468;2023-03-19T00:53:53;100269.50;;;10.59
53667;BMP280;39568;51.026;5.468;2023-03-19T00:56:20;100286.16;;;10.65
53667;BMP280;39568;51.026;5.468;2023-03-19T00:58:47;100283.47;;;10.65
53667;BMP280;39568;51.026;5.468;2023-03-19T01:01:16;100287.31;;;10.75
53667;BMP280;39568;51.026;5.468;2023-03-19T01:03:44;100284.94;;;10.66
53667;BMP280;39568;51.026;5.468;2023-03-19T01:06:11;100277.94;;;10.63
53667;BMP280;39568;51.026;5.468;2023-03-19T01:08:38;100291.47;;;10.65
53667;BMP280;39568;51.026;5.468;2023-03-19T01:11:07;100289.59;;;10.60
53667;BMP280;39568;51.026;5.468;2023-03-19T01:13:34;100279.44;;;10.59
53667;BMP280;39568;51.026;5.468;2023-03-19T01:16:01;100286.94;;;10.55
53667;BMP280;39568;51.026;5.468;2023-03-19T01:18:30;100287.88;;;10.57
53667;BMP280;39568;51.026;5.468;2023-03-19T01:20:57;100281.63;;;10.55
53667;BMP280;39568;51.026;5.468;2023-03-19T01:23:23;100282.81;;;10.59
53667;BMP280;39568;51.026;5.468;2023-03-19T01:25:50;100287.84;;;10.63
53667;BMP280;39568;51.026;5.468;2023-03-19T01:28:17;100287.41;;;10.59
53667;BMP280;39568;51.026;5.468;2023-03-19T01:30:44;100284.00;;;10.64
53667;BMP280;39568;51.026;5.468;2023-03-19T01:33:11;100283.44;;;10.76
53667;BMP280;39568;51.026;5.468;2023-03-19T01:35:39;100283.72;;;10.67
53667;BMP280;39568;51.026;5.468;2023-03-19T01:38:07;100280.13;;;10.65
53667;BMP280;39568;51.026;5.468;2023-03-19T01:40:34;100278.94;;;10.60
53667;BMP280;39568;51.026;5.468;2023-03-19T01:43:22;100270.47;;;10.62
53667;BMP280;39568;51.026;5.468;2023-03-19T01:45:52;100279.91;;;10.57
53667;BMP280;39568;51.026;5.468;2023-03-19T01:48:26;100268.78;;;10.59
53667;BMP280;39568;51.026;5.468;2023-03-19T01:50:55;100275.78;;;10.62
53667;BMP280;39568;51.026;5.468;2023-03-19T01:53:26;100273.44;;;10.53
53667;BMP280;39568;51.026;5.468;2023-03-19T01:55:57;100283.03;;;10.61
53667;BMP280;39568;51.026;5.468;2023-03-19T01:58:25;100271.88;;;10.63
53667;BMP280;39568;51.026;5.468;2023-03-19T02:00:52;100280.38;;;10.61
53667;BMP280;39568;51.026;5.468;2023-03-19T02:03:20;100279.16;;;10.62
53667;BMP280;39568;51.026;5.468;2023-03-19T02:05:48;100280.56;;;10.69
53667;BMP280;39568;51.026;5.468;2023-03-19T02:08:18;100283.38;;;10.82
53667;BMP280;39568;51.026;5.468;2023-03-19T02:10:47;100282.72;;;10.70
53667;BMP280;39568;51.026;5.468;2023-03-19T02:13:14;100282.22;;;10.77
53667;BMP280;39568;51.026;5.468;2023-03-19T02:15:41;100286.47;;;10.92
53667;BMP280;39568;51.026;5.468;2023-03-19T02:18:08;100279.38;;;10.70
53667;BMP280;39568;51.026;5.468;2023-03-19T02:20:43;100286.13;;;10.71
53667;BMP280;39568;51.026;5.468;2023-03-19T02:23:21;100285.19;;;10.68
53667;BMP280;39568;51.026;5.468;2023-03-19T02:26:05;100286.81;;;10.77
53667;BMP280;39568;51.026;5.468;2023-03-19T02:28:33;100283.72;;;10.67
53667;BMP280;39568;51.026;5.468;2023-03-19T02:31:01;100284.56;;;10.87
53667;BMP280;39568;51.026;5.468;2023-03-19T02:33:28;100277.59;;;10.84
53667;BMP280;39568;51.026;5.468;2023-03-19T02:35:55;100281.06;;;10.67
53667;BMP280;39568;51.026;5.468;2023-03-19T02:38:24;100287.38;;;10.64
53667;BMP280;39568;51.026;5.468;2023-03-19T02:40:55;100273.28;;;10.75
53667;BMP280;39568;51.026;5.468;2023-03-19T02:43:25;100278.41;;;10.67
53667;BMP280;39568;51.026;5.468;2023-03-19T02:45:52;100273.63;;;10.60
53667;BMP280;39568;51.026;5.468;2023-03-19T02:48:19;100277.50;;;10.59
53667;BMP280;39568;51.026;5.468;2023-03-19T02:50:46;100279.69;;;10.61
53667;BMP280;39568;51.026;5.468;2023-03-19T02:53:13;100281.28;;;10.69
53667;BMP280;39568;51.026;5.468;2023-03-19T02:55:40;100288.59;;;10.63
53667;BMP280;39568;51.026;5.468;2023-03-19T02:58:07;100291.75;;;10.62
53667;BMP280;39568;51.026;5.468;2023-03-19T03:00:36;100294.44;;;10.56
53667;BMP280;39568;51.026;5.468;2023-03-19T03:03:03;100288.34;;;10.61
53667;BMP280;39568;51.026;5.468;2023-03-19T03:05:31;100291.81;;;10.51
53667;BMP280;39568;51.026;5.468;2023-03-19T03:07:57;100294.03;;;10.41
53667;BMP280;39568;51.026;5.468;2023-03-19T03:10:25;100287.75;;;10.44
53667;BMP280;39568;51.026;5.468;2023-03-19T03:12:51;100277.84;;;10.45
53667;BMP280;39568;51.026;5.468;2023-03-19T03:15:18;100287.75;;;10.44
53667;BMP280;39568;51.026;5.468;2023-03-19T03:17:47;100291.84;;;10.45
53667;BMP280;39568;51.026;5.468;2023-03-19T03:20:15;100291.84;;;10.45
53667;BMP280;39568;51.026;5.468;2023-03-19T03:22:44;100296.16;;;10.48
53667;BMP280;39568;51.026;5.468;2023-03-19T03:25:11;100292.53;;;10.51
53667;BMP280;39568;51.026;5.468;2023-03-19T03:27:38;100292.56;;;10.46
53667;BMP280;39568;51.026;5.468;2023-03-19T03:30:07;100298.66;;;10.35
53667;BMP280;39568;51.026;5.468;2023-03-19T03:32:35;100295.31;;;10.24
53667;BMP280;39568;51.026;5.468;2023-03-19T03:35:05;100298.66;;;10.35
53667;BMP280;39568;51.026;5.468;2023-03-19T03:37:32;100297.97;;;10.29
53667;BMP280;39568;51.026;5.468;2023-03-19T03:39:59;100295.78;;;10.22
53667;BMP280;39568;51.026;5.468;2023-03-19T03:42:30;100303.28;;;10.29
53667;BMP280;39568;51.026;5.468;2023-03-19T03:44:57;100299.69;;;10.21
53667;BMP280;39568;51.026;5.468;2023-03-19T03:47:24;100304.25;;;10.26
53667;BMP280;39568;51.026;5.468;2023-03-19T03:49:50;100309.06;;;10.22
53667;BMP280;39568;51.026;5.468;2023-03-19T03:52:19;100301.34;;;10.30
53667;BMP280;39568;51.026;5.468;2023-03-19T03:54:45;100300.16;;;10.25
53667;BMP280;39568;51.026;5.468;2023-03-19T03:57:12;100309.84;;;10.17
53667;BMP280;39568;51.026;5.468;2023-03-19T03:59:39;100314.13;;;10.31
53667;BMP280;39568;51.026;5.468;2023-03-19T04:02:06;100320.19;;;10.26
53667;BMP280;39568;51.026;5.468;2023-03-19T04:04:32;100315.66;;;10.21
53667;BMP280;39568;51.026;5.468;2023-03-19T04:06:59;100312.25;;;10.21
53667;BMP280;39568;51.026;5.468;2023-03-19T04:09:27;100315.41;;;10.19
53667;BMP280;39568;51.026;5.468;2023-03-19T04:11:54;100315.41;;;10.19
53667;BMP280;39568;51.026;5.468;2023-03-19T04:14:21;100319.50;;;10.26
53667;BMP280;39568;51.026;5.468;2023-03-19T04:16:47;100319.44;;;10.31
53667;BMP280;39568;51.026;5.468;2023-03-19T04:19:14;100311.66;;;10.39
53667;BMP280;39568;51.026;5.468;2023-03-19T04:21:41;100316.06;;;10.31
53667;BMP280;39568;51.026;5.468;2023-03-19T04:24:09;100314.13;;;10.31
53667;BMP280;39568;51.026;5.468;2023-03-19T04:26:37;100320.66;;;10.36
53667;BMP280;39568;51.026;5.468;2023-03-19T04:29:04;100320.19;;;10.26
53667;BMP280;39568;51.026;5.468;2023-03-19T04:31:32;100322.38;;;10.22
53667;BMP280;39568;51.026;5.468;2023-03-19T04:33:59;100319.50;;;10.26
53667;BMP280;39568;51.026;5.468;2023-03-19T04:36:26;100323.34;;;10.25
53667;BMP280;39568;51.026;5.468;2023-03-19T04:38:53;100328.66;;;10.25
53667;BMP280;39568;51.026;5.468;2023-03-19T04:41:20;100325.56;;;10.21
53667;BMP280;39568;51.026;5.468;2023-03-19T04:43:48;100326.03;;;10.19
53667;BMP280;39568;51.026;5.468;2023-03-19T04:46:15;100331.56;;;10.27
53667;BMP280;39568;51.026;5.468;2023-03-19T04:48:42;100335.66;;;10.33
53667;BMP280;39568;51.026;5.468;2023-03-19T04:51:09;100331.75;;;10.34
53667;BMP280;39568;51.026;5.468;2023-03-19T04:53:36;100326.50;;;10.29
53667;BMP280;39568;51.026;5.468;2023-03-19T04:56:05;100333.72;;;10.34
53667;BMP280;39568;51.026;5.468;2023-03-19T04:58:32;100334.25;;;10.21
53667;BMP280;39568;51.026;5.468;2023-03-19T05:01:00;100347.06;;;10.17
53667;BMP280;39568;51.026;5.468;2023-03-19T05:03:28;100339.84;;;10.12
53667;BMP280;39568;51.026;5.468;2023-03-19T05:05:55;100338.13;;;10.20
53667;BMP280;39568;51.026;5.468;2023-03-19T05:08:22;100347.25;;;10.30
53667;BMP280;39568;51.026;5.468;2023-03-19T05:10:48;100343.44;;;10.20
53667;BMP280;39568;51.026;5.468;2023-03-19T05:13:15;100344.91;;;10.21
53667;BMP280;39568;51.026;5.468;2023-03-19T05:15:42;100344.91;;;10.21
53667;BMP280;39568;51.026;5.468;2023-03-19T05:18:11;100344.88;;;10.15
53667;BMP280;39568;51.026;5.468;2023-03-19T05:20:39;100340.56;;;10.07
53667;BMP280;39568;51.026;5.468;2023-03-19T05:23:06;100344.69;;;10.02
53667;BMP280;39568;51.026;5.468;2023-03-19T05:25:33;100349.78;;;9.95
53667;BMP280;39568;51.026;5.468;2023-03-19T05:28:00;100345.66;;;9.88
53667;BMP280;39568;51.026;5.468;2023-03-19T05:30:27;100352.66;;;9.97
53667;BMP280;39568;51.026;5.468;2023-03-19T05:32:55;100346.63;;;9.91
53667;BMP280;39568;51.026;5.468;2023-03-19T05:35:23;100358.22;;;9.99
53667;BMP280;39568;51.026;5.468;2023-03-19T05:37:49;100363.53;;;9.99
53667;BMP280;39568;51.026;5.468;2023-03-19T05:40:16;100358.69;;;10.03
53667;BMP280;39568;51.026;5.468;2023-03-19T05:42:43;100357.22;;;10.07
53667;BMP280;39568;51.026;5.468;2023-03-19T05:45:10;100353.88;;;9.96
53667;BMP280;39568;51.026;5.468;2023-03-19T05:47:37;100356.50;;;10.07
53667;BMP280;39568;51.026;5.468;2023-03-19T05:50:05;100364.75;;;9.98
53667;BMP280;39568;51.026;5.468;2023-03-19T05:52:33;100366.66;;;10.03
53667;BMP280;39568;51.026;5.468;2023-03-19T05:55:00;100372.94;;;10.00
53667;BMP280;39568;51.026;5.468;2023-03-19T05:57:26;100369.78;;;10.07
53667;BMP280;39568;51.026;5.468;2023-03-19T05:59:53;100373.19;;;10.07
53667;BMP280;39568;51.026;5.468;2023-03-19T06:02:20;100376.81;;;9.99
53667;BMP280;39568;51.026;5.468;2023-03-19T06:04:47;100381.19;;;10.02
53667;BMP280;39568;51.026;5.468;2023-03-19T06:07:13;100378.03;;;9.98
53667;BMP280;39568;51.026;5.468;2023-03-19T06:09:41;100376.34;;;10.06
53667;BMP280;39568;51.026;5.468;2023-03-19T06:12:08;100385.25;;;10.14
53667;BMP280;39568;51.026;5.468;2023-03-19T06:14:35;100389.84;;;10.19
53667;BMP280;39568;51.026;5.468;2023-03-19T06:17:02;100388.84;;;10.33
53667;BMP280;39568;51.026;5.468;2023-03-19T06:19:29;100396.34;;;10.18
53667;BMP280;39568;51.026;5.468;2023-03-19T06:21:55;100392.03;;;10.21
53667;BMP280;39568;51.026;5.468;2023-03-19T06:24:22;100391.03;;;10.24
53667;BMP280;39568;51.026;5.468;2023-03-19T06:26:50;100397.78;;;10.25
53667;BMP280;39568;51.026;5.468;2023-03-19T06:29:17;100401.16;;;10.31
53667;BMP280;39568;51.026;5.468;2023-03-19T06:31:43;100396.28;;;10.46
53667;BMP280;39568;51.026;5.468;2023-03-19T06:34:10;100400.13;;;10.50
53667;BMP280;39568;51.026;5.468;2023-03-19T06:36:38;100412.00;;;10.49
53667;BMP280;39568;51.026;5.468;2023-03-19T06:39:04;100408.59;;;10.49
53667;BMP280;39568;51.026;5.468;2023-03-19T06:41:31;100413.97;;;10.38
53667;BMP280;39568;51.026;5.468;2023-03-19T06:43:59;100410.59;;;10.37
53667;BMP280;39568;51.026;5.468;2023-03-19T06:46:26;100422.16;;;10.40
53667;BMP280;39568;51.026;5.468;2023-03-19T06:48:53;100414.69;;;10.33
53667;BMP280;39568;51.026;5.468;2023-03-19T06:51:20;100426.06;;;10.33
53667;BMP280;39568;51.026;5.468;2023-03-19T06:53:46;100428.97;;;10.35
53667;BMP280;39568;51.026;5.468;2023-03-19T06:56:13;100417.38;;;10.22
53667;BMP280;39568;51.026;5.468;2023-03-19T06:58:40;100428.75;;;10.28
53667;BMP280;39568;51.026;5.468;2023-03-19T07:01:08;100421.50;;;10.28
53667;BMP280;39568;51.026;5.468;2023-03-19T07:03:35;100428.00;;;10.27
53667;BMP280;39568;51.026;5.468;2023-03-19T07:06:02;100424.16;;;10.17
53667;BMP280;39568;51.026;5.468;2023-03-19T07:08:28;100424.66;;;10.10
53667;BMP280;39568;51.026;5.468;2023-03-19T07:10:55;100431.19;;;10.09
53667;BMP280;39568;51.026;5.468;2023-03-19T07:13:22;100432.38;;;10.08
53667;BMP280;39568;51.026;5.468;2023-03-19T07:15:49;100428.28;;;10.12
53667;BMP280;39568;51.026;5.468;2023-03-19T07:18:17;100428.75;;;10.11
53667;BMP280;39568;51.026;5.468;2023-03-19T07:20:44;100438.66;;;10.16
53667;BMP280;39568;51.026;5.468;2023-03-19T07:23:11;100423.19;;;10.20
53667;BMP280;39568;51.026;5.468;2023-03-19T07:25:38;100431.63;;;10.18
53667;BMP280;39568;51.026;5.468;2023-03-19T07:28:04;100437.94;;;10.21
53667;BMP280;39568;51.026;5.468;2023-03-19T07:30:31;100445.94;;;10.21
53667;BMP280;39568;51.026;5.468;2023-03-19T07:32:59;100442.72;;;10.39
53667;BMP280;39568;51.026;5.468;2023-03-19T07:35:27;100450.16;;;10.68
53667;BMP280;39568;51.026;5.468;2023-03-19T07:37:54;100447.88;;;10.89
53667;BMP280;39568;51.026;5.468;2023-03-19T07:40:21;100449.34;;;10.85
53667;BMP280;39568;51.026;5.468;2023-03-19T07:42:48;100443.31;;;10.84
53667;BMP280;39568;51.026;5.468;2023-03-19T07:45:15;100443.97;;;10.96
53667;BMP280;39568;51.026;5.468;2023-03-19T07:47:42;100453.09;;;11.11
53667;BMP280;39568;51.026;5.468;2023-03-19T07:50:09;100448.13;;;11.32
53667;BMP280;39568;51.026;5.468;2023-03-19T07:52:38;100458.03;;;11.67
53667;BMP280;39568;51.026;5.468;2023-03-19T07:55:05;100465.19;;;11.53
53667;BMP280;39568;51.026;5.468;2023-03-19T07:57:32;100454.13;;;11.73
53667;BMP280;39568;51.026;5.468;2023-03-19T07:59:59;100460.81;;;11.85
53667;BMP280;39568;51.026;5.468;2023-03-19T08:02:25;100464.13;;;11.97
53667;BMP280;39568;51.026;5.468;2023-03-19T08:04:52;100469.63;;;11.99
53667;BMP280;39568;51.026;5.468;2023-03-19T08:07:20;100469.69;;;12.42
53667;BMP280;39568;51.026;5.468;2023-03-19T08:09:48;100456.88;;;12.40
53667;BMP280;39568;51.026;5.468;2023-03-19T08:12:14;100465.50;;;12.52
53667;BMP280;39568;51.026;5.468;2023-03-19T08:14:41;100470.25;;;12.59
53667;BMP280;39568;51.026;5.468;2023-03-19T08:17:08;100469.69;;;12.66
53667;BMP280;39568;51.026;5.468;2023-03-19T08:19:34;100474.53;;;12.86
53667;BMP280;39568;51.026;5.468;2023-03-19T08:22:01;100474.56;;;12.62
53667;BMP280;39568;51.026;5.468;2023-03-19T08:24:28;100485.59;;;12.53
53667;BMP280;39568;51.026;5.468;2023-03-19T08:26:56;100484.25;;;12.65
53667;BMP280;39568;51.026;5.468;2023-03-19T08:29:23;100490.88;;;12.58
53667;BMP280;39568;51.026;5.468;2023-03-19T08:31:50;100477.94;;;12.44
53667;BMP280;39568;51.026;5.468;2023-03-19T08:34:17;100488.81;;;12.22
53667;BMP280;39568;51.026;5.468;2023-03-19T08:36:44;100486.00;;;12.38
53667;BMP280;39568;51.026;5.468;2023-03-19T08:39:11;100484.47;;;12.67
53667;BMP280;39568;51.026;5.468;2023-03-19T08:41:37;100483.31;;;12.62
53667;BMP280;39568;51.026;5.468;2023-03-19T08:44:05;100491.94;;;12.50
53667;BMP280;39568;51.026;5.468;2023-03-19T08:46:32;100493.22;;;12.43
53667;BMP280;39568;51.026;5.468;2023-03-19T08:48:59;100499.94;;;12.50
53667;BMP280;39568;51.026;5.468;2023-03-19T08:51:26;100504.28;;;12.53
53667;BMP280;39568;51.026;5.468;2023-03-19T08:53:55;100503.75;;;12.60
53667;BMP280;39568;51.026;5.468;2023-03-19T08:56:22;100498.91;;;12.77
53667;BMP280;39568;51.026;5.468;2023-03-19T08:58:48;100507.72;;;12.48
53667;BMP280;39568;51.026;5.468;2023-03-19T09:01:16;100507.22;;;13.29
53667;BMP280;39568;51.026;5.468;2023-03-19T09:03:43;100511.19;;;13.86
53667;BMP280;39568;51.026;5.468;2023-03-19T09:06:12;100510.06;;;14.60
53667;BMP280;39568;51.026;5.468;2023-03-19T09:08:40;100508.38;;;14.84
53667;BMP280;39568;51.026;5.468;2023-03-19T09:11:07;100509.34;;;15.69
53667;BMP280;39568;51.026;5.468;2023-03-19T09:13:34;100514.84;;;15.84
53667;BMP280;39568;51.026;5.468;2023-03-19T09:16:01;100518.88;;;15.15
53667;BMP280;39568;51.026;5.468;2023-03-19T09:18:30;100513.78;;;14.70
53667;BMP280;39568;51.026;5.468;2023-03-19T09:20:56;100525.06;;;13.85
53667;BMP280;39568;51.026;5.468;2023-03-19T09:23:23;100525.66;;;13.27
53667;BMP280;39568;51.026;5.468;2023-03-19T09:25:50;100526.47;;;12.85
53667;BMP280;39568;51.026;5.468;2023-03-19T09:28:17;100524.41;;;12.54
53667;BMP280;39568;51.026;5.468;2023-03-19T09:30:45;100521.41;;;12.82
53667;BMP280;39568;51.026;5.468;2023-03-19T09:33:12;100522.88;;;14.28
53667;BMP280;39568;51.026;5.468;2023-03-19T09:35:41;100534.59;;;14.51
53667;BMP280;39568;51.026;5.468;2023-03-19T09:38:08;100531.00;;;15.50
53667;BMP280;39568;51.026;5.468;2023-03-19T09:40:37;100525.50;;;15.76
53667;BMP280;39568;51.026;5.468;2023-03-19T09:43:29;100538.53;;;15.72
53667;BMP280;39568;51.026;5.468;2023-03-19T09:46:03;100546.94;;;16.25
53667;BMP280;39568;51.026;5.468;2023-03-19T09:48:37;100548.63;;;16.94
53667;BMP280;39568;51.026;5.468;2023-03-19T09:51:11;100545.84;;;15.92
53667;BMP280;39568;51.026;5.468;2023-03-19T09:53:43;100550.03;;;16.08
53667;BMP280;39568;51.026;5.468;2023-03-19T09:56:14;100547.97;;;16.22
53667;BMP280;39568;51.026;5.468;2023-03-19T09:58:44;100555.94;;;16.35
53667;BMP280;39568;51.026;5.468;2023-03-19T10:01:21;100543.31;;;15.66
53667;BMP280;39568;51.026;5.468;2023-03-19T10:06:40;100550.16;;;15.13
53667;BMP280;39568;51.026;5.468;2023-03-19T10:09:26;100564.72;;;15.25
53667;BMP280;39568;51.026;5.468;2023-03-19T10:12:08;100556.78;;;16.02
53667;BMP280;39568;51.026;5.468;2023-03-19T10:15:02;100563.44;;;16.80
53667;BMP280;39568;51.026;5.468;2023-03-19T10:17:31;100565.81;;;16.98
53667;BMP280;39568;51.026;5.468;2023-03-19T10:20:02;100569.84;;;17.35
53667;BMP280;39568;51.026;5.468;2023-03-19T10:22:35;100559.09;;;18.43
53667;BMP280;39568;51.026;5.468;2023-03-19T10:25:04;100562.84;;;18.47
53667;BMP280;39568;51.026;5.468;2023-03-19T10:27:36;100567.00;;;17.41
53667;BMP280;39568;51.026;5.468;2023-03-19T10:30:12;100570.44;;;16.40
53667;BMP280;39568;51.026;5.468;2023-03-19T10:32:40;100577.91;;;16.62
53667;BMP280;39568;51.026;5.468;2023-03-19T10:35:16;100588.03;;;16.99
53667;BMP280;39568;51.026;5.468;2023-03-19T10:37:46;100578.13;;;17.52
53667;BMP280;39568;51.026;5.468;2023-03-19T10:40:19;100585.72;;;16.88
53667;BMP280;39568;51.026;5.468;2023-03-19T10:42:55;100583.47;;;17.98
53667;BMP280;39568;51.026;5.468;2023-03-19T10:45:29;100587.94;;;16.69
53667;BMP280;39568;51.026;5.468;2023-03-19T10:47:58;100576.69;;;18.44
53667;BMP280;39568;51.026;5.468;2023-03-19T10:50:29;100581.56;;;18.85
53667;BMP280;39568;51.026;5.468;2023-03-19T10:53:03;100576.13;;;19.17
53667;BMP280;39568;51.026;5.468;2023-03-19T10:55:32;100578.44;;;18.96
53667;BMP280;39568;51.026;5.468;2023-03-19T10:58:02;100582.22;;;17.68
53667;BMP280;39568;51.026;5.468;2023-03-19T11:00:30;100578.09;;;15.79
53667;BMP280;39568;51.026;5.468;2023-03-19T11:02:58;100588.66;;;15.23
53667;BMP280;39568;51.026;5.468;2023-03-19T11:05:31;100574.66;;;15.17
53667;BMP280;39568;51.026;5.468;2023-03-19T11:08:02;100577.09;;;14.68
53667;BMP280;39568;51.026;5.468;2023-03-19T11:10:30;100588.72;;;14.84
53667;BMP280;39568;51.026;5.468;2023-03-19T11:12:59;100582.47;;;15.69
53667;BMP280;39568;51.026;5.468;2023-03-19T11:15:33;100595.25;;;17.04
53667;BMP280;39568;51.026;5.468;2023-03-19T11:18:05;100592.69;;;18.49
53667;BMP280;39568;51.026;5.468;2023-03-19T11:20:34;100589.16;;;19.53
53667;BMP280;39568;51.026;5.468;2023-03-19T11:23:06;100584.00;;;19.89
53667;BMP280;39568;51.026;5.468;2023-03-19T11:25:38;100586.59;;;20.31
53667;BMP280;39568;51.026;5.468;2023-03-19T11:28:07;100585.59;;;18.69
53667;BMP280;39568;51.026;5.468;2023-03-19T11:30:41;100581.91;;;16.40
53667;BMP280;39568;51.026;5.468;2023-03-19T11:36:06;100587.03;;;15.07
53667;BMP280;39568;51.026;5.468;2023-03-19T11:38:42;100581.16;;;14.61
53667;BMP280;39568;51.026;5.468;2023-03-19T11:41:19;100585.56;;;14.46
53667;BMP280;39568;51.026;5.468;2023-03-19T11:43:52;100593.38;;;15.84
53667;BMP280;39568;51.026;5.468;2023-03-19T11:46:32;100594.06;;;17.50
53667;BMP280;39568;51.026;5.468;2023-03-19T11:49:24;100601.09;;;17.84
53667;BMP280;39568;51.026;5.468;2023-03-19T11:51:56;100584.44;;;19.37
53667;BMP280;39568;51.026;5.468;2023-03-19T11:54:34;100584.81;;;19.58
53667;BMP280;39568;51.026;5.468;2023-03-19T11:57:08;100588.84;;;17.98
53667;BMP280;39568;51.026;5.468;2023-03-19T11:59:49;100593.88;;;18.09
53667;BMP280;39568;51.026;5.468;2023-03-19T12:02:42;100577.50;;;18.69
53667;BMP280;39568;51.026;5.468;2023-03-19T12:05:20;100573.84;;;19.06
53667;BMP280;39568;51.026;5.468;2023-03-19T12:07:57;100578.50;;;17.56
53667;BMP280;39568;51.026;5.468;2023-03-19T12:10:37;100579.53;;;17.23
53667;BMP280;39568;51.026;5.468;2023-03-19T12:13:19;100572.97;;;15.89
53667;BMP280;39568;51.026;5.468;2023-03-19T12:15:57;100567.69;;;15.34
53667;BMP280;39568;51.026;5.468;2023-03-19T12:18:39;100577.34;;;15.17
53667;BMP280;39568;51.026;5.468;2023-03-19T12:21:14;100580.38;;;15.75
53667;BMP280;39568;51.026;5.468;2023-03-19T12:23:57;100565.50;;;17.02
53667;BMP280;39568;51.026;5.468;2023-03-19T12:26:33;100563.97;;;15.99
53667;BMP280;39568;51.026;5.468;2023-03-19T12:29:09;100567.38;;;16.71
53667;BMP280;39568;51.026;5.468;2023-03-19T12:31:53;100568.75;;;19.18
53667;BMP280;39568;51.026;5.468;2023-03-19T12:34:28;100566.84;;;19.53
53667;BMP280;39568;51.026;5.468;2023-03-19T12:37:07;100561.38;;;20.29
53667;BMP280;39568;51.026;5.468;2023-03-19T12:39:38;100560.47;;;23.11
53667;BMP280;39568;51.026;5.468;2023-03-19T12:42:11;100562.56;;;24.77
53667;BMP280;39568;51.026;5.468;2023-03-19T12:44:41;100568.50;;;22.78
53667;BMP280;39568;51.026;5.468;2023-03-19T12:47:14;100570.06;;;22.41
53667;BMP280;39568;51.026;5.468;2023-03-19T12:49:46;100567.00;;;20.40
53667;BMP280;39568;51.026;5.468;2023-03-19T12:52:21;100566.06;;;20.28
53667;BMP280;39568;51.026;5.468;2023-03-19T12:54:53;100570.56;;;20.69
53667;BMP280;39568;51.026;5.468;2023-03-19T12:57:30;100567.50;;;20.12
53667;BMP280;39568;51.026;5.468;2023-03-19T13:00:00;100561.13;;;20.87
53667;BMP280;39568;51.026;5.468;2023-03-19T13:02:35;100567.38;;;20.10
53667;BMP280;39568;51.026;5.468;2023-03-19T13:05:08;100565.22;;;19.74
53667;BMP280;39568;51.026;5.468;2023-03-19T13:07:45;100568.00;;;20.18
53667;BMP280;39568;51.026;5.468;2023-03-19T13:10:17;100562.47;;;21.06
53667;BMP280;39568;51.026;5.468;2023-03-19T13:12:48;100578.00;;;21.79
53667;BMP280;39568;51.026;5.468;2023-03-19T13:15:20;100573.34;;;21.25
53667;BMP280;39568;51.026;5.468;2023-03-19T13:17:56;100568.31;;;20.22
53667;BMP280;39568;51.026;5.468;2023-03-19T13:20:32;100561.97;;;18.45
53667;BMP280;39568;51.026;5.468;2023-03-19T13:23:07;100571.88;;;18.42
53667;BMP280;39568;51.026;5.468;2023-03-19T13:25:37;100568.38;;;18.89
53667;BMP280;39568;51.026;5.468;2023-03-19T13:28:09;100568.41;;;21.40
53667;BMP280;39568;51.026;5.468;2023-03-19T13:30:36;100566.69;;;22.31
53667;BMP280;39568;51.026;5.468;2023-03-19T13:33:06;100569.63;;;20.48
53667;BMP280;39568;51.026;5.468;2023-03-19T13:35:39;100573.38;;;20.18
53667;BMP280;39568;51.026;5.468;2023-03-19T13:38:17;100567.56;;;18.79
53667;BMP280;39568;51.026;5.468;2023-03-19T13:40:47;100584.00;;;18.04
53667;BMP280;39568;51.026;5.468;2023-03-19T13:43:40;100569.50;;;17.61
53667;BMP280;39568;51.026;5.468;2023-03-19T13:46:38;100572.53;;;17.88
53667;BMP280;39568;51.026;5.468;2023-03-19T13:49:22;100572.19;;;18.54
53667;BMP280;39568;51.026;5.468;2023-03-19T13:51:53;100581.66;;;18.23
53667;BMP280;39568;51.026;5.468;2023-03-19T13:54:31;100576.84;;;17.84
53667;BMP280;39568;51.026;5.468;2023-03-19T13:59:50;100579.91;;;17.27
53667;BMP280;39568;51.026;5.468;2023-03-19T14:05:23;100580.81;;;16.36
53667;BMP280;39568;51.026;5.468;2023-03-19T14:07:52;100585.22;;;16.26
53667;BMP280;39568;51.026;5.468;2023-03-19T14:10:23;100593.63;;;16.01
53667;BMP280;39568;51.026;5.468;2023-03-19T14:13:00;100596.63;;;15.49
53667;BMP280;39568;51.026;5.468;2023-03-19T14:15:29;100596.38;;;15.81
53667;BMP280;39568;51.026;5.468;2023-03-19T14:17:59;100604.88;;;15.38
53667;BMP280;39568;51.026;5.468;2023-03-19T14:20:28;100601.75;;;15.47
53667;BMP280;39568;51.026;5.468;2023-03-19T14:23:20;100597.97;;;15.42